sensor_id;sensor_type;location;lat;lon;timestamp;P1;P2;P0
49644;PMS5003;36494;50.730;-1.932;2022-12-07T00:00:10;39;38;
49644;PMS5003;36494;50.730;-1.932;2022-12-07T00:02:35;35;34;
49644;PMS5003;36494;50.730;-1.932;2022-12-07T00:05:00;40;38;
49644;PMS5003;36494;50.730;-1.932;2022-12-07T00:07:26;39;37;
49644;PMS5003;36494;50.730;-1.932;2022-12-07T00:09:52;38;34;
49644;PMS5003;36494;50.730;-1.932;2022-12-07T00:12:17;39;38;
49644;PMS5003;36494;50.730;-1.932;2022-12-07T00:14:42;36;34;
49644;PMS5003;36494;50.730;-1.932;2022-12-07T00:17:08;46;42;
49644;PMS5003;36494;50.730;-1.932;2022-12-07T00:19:34;42;38;
49644;PMS5003;36494;50.730;-1.932;2022-12-07T00:21:59;38;36;
49644;PMS5003;36494;50.730;-1.932;2022-12-07T00:24:25;38;37;
49644;PMS5003;36494;50.730;-1.932;2022-12-07T00:26:50;36;35;
49644;PMS5003;36494;50.730;-1.932;2022-12-07T00:29:17;39;37;
49644;PMS5003;36494;50.730;-1.932;2022-12-07T00:31:42;44;43;
49644;PMS5003;36494;50.730;-1.932;2022-12-07T00:34:09;36;34;
49644;PMS5003;36494;50.730;-1.932;2022-12-07T00:36:32;48;43;
49644;PMS5003;36494;50.730;-1.932;2022-12-07T00:38:58;46;45;
49644;PMS5003;36494;50.730;-1.932;2022-12-07T00:41:24;44;39;
49644;PMS5003;36494;50.730;-1.932;2022-12-07T00:43:49;47;46;
49644;PMS5003;36494;50.730;-1.932;2022-12-07T00:46:14;42;39;
49644;PMS5003;36494;50.730;-1.932;2022-12-07T00:48:40;42;41;
49644;PMS5003;36494;50.730;-1.932;2022-12-07T00:51:05;42;38;
49644;PMS5003;36494;50.730;-1.932;2022-12-07T00:53:30;47;43;
49644;PMS5003;36494;50.730;-1.932;2022-12-07T00:55:56;43;41;
49644;PMS5003;36494;50.730;-1.932;2022-12-07T00:58:21;45;41;
49644;PMS5003;36494;50.730;-1.932;2022-12-07T01:00:47;46;44;
49644;PMS5003;36494;50.730;-1.932;2022-12-07T01:03:13;34;34;
49644;PMS5003;36494;50.730;-1.932;2022-12-07T01:05:38;42;40;
49644;PMS5003;36494;50.730;-1.932;2022-12-07T01:08:03;40;38;
49644;PMS5003;36494;50.730;-1.932;2022-12-07T01:10:29;39;37;
49644;PMS5003;36494;50.730;-1.932;2022-12-07T01:12:54;47;44;
49644;PMS5003;36494;50.730;-1.932;2022-12-07T01:15:19;47;46;
49644;PMS5003;36494;50.730;-1.932;2022-12-07T01:17:45;44;43;
49644;PMS5003;36494;50.730;-1.932;2022-12-07T01:20:11;45;42;
49644;PMS5003;36494;50.730;-1.932;2022-12-07T01:22:36;45;41;
49644;PMS5003;36494;50.730;-1.932;2022-12-07T01:25:01;46;44;
49644;PMS5003;36494;50.730;-1.932;2022-12-07T01:27:26;51;49;
49644;PMS5003;36494;50.730;-1.932;2022-12-07T01:29:52;49;45;
49644;PMS5003;36494;50.730;-1.932;2022-12-07T01:32:17;42;39;
49644;PMS5003;36494;50.730;-1.932;2022-12-07T01:34:42;50;47;
49644;PMS5003;36494;50.730;-1.932;2022-12-07T01:37:07;48;45;
49644;PMS5003;36494;50.730;-1.932;2022-12-07T01:39:33;53;48;
49644;PMS5003;36494;50.730;-1.932;2022-12-07T01:41:59;43;40;
49644;PMS5003;36494;50.730;-1.932;2022-12-07T01:44:24;44;41;
49644;PMS5003;36494;50.730;-1.932;2022-12-07T01:46:49;41;39;
49644;PMS5003;36494;50.730;-1.932;2022-12-07T01:49:16;43;42;
49644;PMS5003;36494;50.730;-1.932;2022-12-07T01:51:40;52;50;
49644;PMS5003;36494;50.730;-1.932;2022-12-07T01:54:05;46;42;
49644;PMS5003;36494;50.730;-1.932;2022-12-07T01:56:31;46;44;
49644;PMS5003;36494;50.730;-1.932;2022-12-07T01:58:57;44;44;
49644;PMS5003;36494;50.730;-1.932;2022-12-07T02:01:22;47;42;
49644;PMS5003;36494;50.730;-1.932;2022-12-07T02:03:47;45;41;
49644;PMS5003;36494;50.730;-1.932;2022-12-07T02:06:13;42;41;
49644;PMS5003;36494;50.730;-1.932;2022-12-07T02:08:38;45;44;
49644;PMS5003;36494;50.730;-1.932;2022-12-07T02:11:04;50;45;
49644;PMS5003;36494;50.730;-1.932;2022-12-07T02:13:29;53;50;
49644;PMS5003;36494;50.730;-1.932;2022-12-07T02:16:01;45;43;
49644;PMS5003;36494;50.730;-1.932;2022-12-07T02:18:22;43;40;
49644;PMS5003;36494;50.730;-1.932;2022-12-07T02:20:46;49;42;
49644;PMS5003;36494;50.730;-1.932;2022-12-07T02:23:21;43;41;
49644;PMS5003;36494;50.730;-1.932;2022-12-07T02:25:41;43;42;
49644;PMS5003;36494;50.730;-1.932;2022-12-07T02:28:03;47;44;
49644;PMS5003;36494;50.730;-1.932;2022-12-07T02:30:28;46;41;
49644;PMS5003;36494;50.730;-1.932;2022-12-07T02:32:55;50;49;
49644;PMS5003;36494;50.730;-1.932;2022-12-07T02:35:18;43;38;
49644;PMS5003;36494;50.730;-1.932;2022-12-07T02:37:45;38;36;
49644;PMS5003;36494;50.730;-1.932;2022-12-07T02:40:09;48;46;
49644;PMS5003;36494;50.730;-1.932;2022-12-07T02:42:40;54;50;
49644;PMS5003;36494;50.730;-1.932;2022-12-07T02:44:59;44;42;
49644;PMS5003;36494;50.730;-1.932;2022-12-07T02:47:24;46;44;
49644;PMS5003;36494;50.730;-1.932;2022-12-07T02:49:50;46;43;
49644;PMS5003;36494;50.730;-1.932;2022-12-07T02:52:15;46;42;
49644;PMS5003;36494;50.730;-1.932;2022-12-07T02:54:40;49;45;
49644;PMS5003;36494;50.730;-1.932;2022-12-07T02:57:11;44;44;
49644;PMS5003;36494;50.730;-1.932;2022-12-07T02:59:34;50;47;
49644;PMS5003;36494;50.730;-1.932;2022-12-07T03:01:59;49;45;
49644;PMS5003;36494;50.730;-1.932;2022-12-07T03:04:26;45;44;
49644;PMS5003;36494;50.730;-1.932;2022-12-07T03:06:48;43;41;
49644;PMS5003;36494;50.730;-1.932;2022-12-07T03:09:14;43;41;
49644;PMS5003;36494;50.730;-1.932;2022-12-07T03:11:40;47;43;
49644;PMS5003;36494;50.730;-1.932;2022-12-07T03:14:04;52;50;
49644;PMS5003;36494;50.730;-1.932;2022-12-07T03:16:29;46;41;
49644;PMS5003;36494;50.730;-1.932;2022-12-07T03:18:55;46;43;
49644;PMS5003;36494;50.730;-1.932;2022-12-07T03:21:20;41;40;
49644;PMS5003;36494;50.730;-1.932;2022-12-07T03:23:46;48;47;
49644;PMS5003;36494;50.730;-1.932;2022-12-07T03:26:11;49;43;
49644;PMS5003;36494;50.730;-1.932;2022-12-07T03:28:36;41;39;
49644;PMS5003;36494;50.730;-1.932;2022-12-07T03:31:02;45;41;
49644;PMS5003;36494;50.730;-1.932;2022-12-07T03:33:28;47;45;
49644;PMS5003;36494;50.730;-1.932;2022-12-07T03:35:52;46;46;
49644;PMS5003;36494;50.730;-1.932;2022-12-07T03:38:18;44;41;
49644;PMS5003;36494;50.730;-1.932;2022-12-07T03:40:43;42;40;
49644;PMS5003;36494;50.730;-1.932;2022-12-07T03:43:08;43;40;
49644;PMS5003;36494;50.730;-1.932;2022-12-07T03:45:36;51;44;
49644;PMS5003;36494;50.730;-1.932;2022-12-07T03:48:00;41;40;
49644;PMS5003;36494;50.730;-1.932;2022-12-07T03:50:26;45;39;
49644;PMS5003;36494;50.730;-1.932;2022-12-07T03:52:52;40;39;
49644;PMS5003;36494;50.730;-1.932;2022-12-07T03:55:16;44;41;
49644;PMS5003;36494;50.730;-1.932;2022-12-07T03:57:41;46;44;
49644;PMS5003;36494;50.730;-1.932;2022-12-07T04:00:07;41;39;
49644;PMS5003;36494;50.730;-1.932;2022-12-07T04:02:32;44;41;
49644;PMS5003;36494;50.730;-1.932;2022-12-07T04:04:57;47;45;
49644;PMS5003;36494;50.730;-1.932;2022-12-07T04:07:22;47;44;
49644;PMS5003;36494;50.730;-1.932;2022-12-07T04:09:48;52;45;
49644;PMS5003;36494;50.730;-1.932;2022-12-07T04:12:13;55;48;
49644;PMS5003;36494;50.730;-1.932;2022-12-07T04:14:38;48;46;
49644;PMS5003;36494;50.730;-1.932;2022-12-07T04:17:04;46;44;
49644;PMS5003;36494;50.730;-1.932;2022-12-07T04:19:30;45;41;
49644;PMS5003;36494;50.730;-1.932;2022-12-07T04:21:55;48;46;
49644;PMS5003;36494;50.730;-1.932;2022-12-07T04:24:20;46;43;
49644;PMS5003;36494;50.730;-1.932;2022-12-07T04:26:46;42;39;
49644;PMS5003;36494;50.730;-1.932;2022-12-07T04:29:11;40;39;
49644;PMS5003;36494;50.730;-1.932;2022-12-07T04:31:37;37;36;
49644;PMS5003;36494;50.730;-1.932;2022-12-07T04:34:02;35;33;
49644;PMS5003;36494;50.730;-1.932;2022-12-07T04:36:28;41;36;
49644;PMS5003;36494;50.730;-1.932;2022-12-07T04:38:53;40;37;
49644;PMS5003;36494;50.730;-1.932;2022-12-07T04:41:19;44;40;
49644;PMS5003;36494;50.730;-1.932;2022-12-07T04:43:45;42;37;
49644;PMS5003;36494;50.730;-1.932;2022-12-07T04:46:10;40;37;
49644;PMS5003;36494;50.730;-1.932;2022-12-07T04:48:35;40;38;
49644;PMS5003;36494;50.730;-1.932;2022-12-07T04:51:02;43;37;
49644;PMS5003;36494;50.730;-1.932;2022-12-07T04:53:26;46;42;
49644;PMS5003;36494;50.730;-1.932;2022-12-07T04:55:51;39;37;
49644;PMS5003;36494;50.730;-1.932;2022-12-07T04:58:17;40;36;
49644;PMS5003;36494;50.730;-1.932;2022-12-07T05:00:42;49;43;
49644;PMS5003;36494;50.730;-1.932;2022-12-07T05:03:07;40;40;
49644;PMS5003;36494;50.730;-1.932;2022-12-07T05:05:32;34;31;
49644;PMS5003;36494;50.730;-1.932;2022-12-07T05:07:58;31;29;
49644;PMS5003;36494;50.730;-1.932;2022-12-07T05:10:24;44;42;
49644;PMS5003;36494;50.730;-1.932;2022-12-07T05:12:49;33;31;
49644;PMS5003;36494;50.730;-1.932;2022-12-07T05:15:15;38;33;
49644;PMS5003;36494;50.730;-1.932;2022-12-07T05:17:40;39;37;
49644;PMS5003;36494;50.730;-1.932;2022-12-07T05:20:06;39;37;
49644;PMS5003;36494;50.730;-1.932;2022-12-07T05:22:31;30;29;
49644;PMS5003;36494;50.730;-1.932;2022-12-07T05:24:57;37;33;
49644;PMS5003;36494;50.730;-1.932;2022-12-07T05:27:22;32;30;
49644;PMS5003;36494;50.730;-1.932;2022-12-07T05:29:49;30;28;
49644;PMS5003;36494;50.730;-1.932;2022-12-07T05:32:13;33;30;
49644;PMS5003;36494;50.730;-1.932;2022-12-07T05:34:39;33;30;
49644;PMS5003;36494;50.730;-1.932;2022-12-07T05:37:04;35;32;
49644;PMS5003;36494;50.730;-1.932;2022-12-07T05:39:30;32;31;
49644;PMS5003;36494;50.730;-1.932;2022-12-07T05:41:55;37;36;
49644;PMS5003;36494;50.730;-1.932;2022-12-07T05:44:21;35;31;
49644;PMS5003;36494;50.730;-1.932;2022-12-07T05:46:46;36;35;
49644;PMS5003;36494;50.730;-1.932;2022-12-07T05:49:11;40;38;
49644;PMS5003;36494;50.730;-1.932;2022-12-07T05:51:37;42;38;
49644;PMS5003;36494;50.730;-1.932;2022-12-07T05:54:02;34;32;
49644;PMS5003;36494;50.730;-1.932;2022-12-07T05:56:28;34;33;
49644;PMS5003;36494;50.730;-1.932;2022-12-07T05:58:54;37;34;
49644;PMS5003;36494;50.730;-1.932;2022-12-07T06:01:19;38;37;
49644;PMS5003;36494;50.730;-1.932;2022-12-07T06:03:45;34;32;
49644;PMS5003;36494;50.730;-1.932;2022-12-07T06:06:10;41;38;
49644;PMS5003;36494;50.730;-1.932;2022-12-07T06:08:36;44;38;
49644;PMS5003;36494;50.730;-1.932;2022-12-07T06:11:02;46;44;
49644;PMS5003;36494;50.730;-1.932;2022-12-07T06:13:27;38;36;
49644;PMS5003;36494;50.730;-1.932;2022-12-07T06:15:52;43;39;
49644;PMS5003;36494;50.730;-1.932;2022-12-07T06:18:17;42;39;
49644;PMS5003;36494;50.730;-1.932;2022-12-07T06:20:43;34;33;
49644;PMS5003;36494;50.730;-1.932;2022-12-07T06:23:08;36;35;
49644;PMS5003;36494;50.730;-1.932;2022-12-07T06:25:34;35;35;
49644;PMS5003;36494;50.730;-1.932;2022-12-07T06:27:59;33;31;
49644;PMS5003;36494;50.730;-1.932;2022-12-07T06:30:25;37;34;
49644;PMS5003;36494;50.730;-1.932;2022-12-07T06:32:50;32;31;
49644;PMS5003;36494;50.730;-1.932;2022-12-07T06:35:16;29;28;
49644;PMS5003;36494;50.730;-1.932;2022-12-07T06:37:42;36;33;
49644;PMS5003;36494;50.730;-1.932;2022-12-07T06:40:08;36;33;
49644;PMS5003;36494;50.730;-1.932;2022-12-07T06:42:32;32;32;
49644;PMS5003;36494;50.730;-1.932;2022-12-07T06:44:57;37;34;
49644;PMS5003;36494;50.730;-1.932;2022-12-07T06:47:23;33;33;
49644;PMS5003;36494;50.730;-1.932;2022-12-07T06:49:48;33;32;
49644;PMS5003;36494;50.730;-1.932;2022-12-07T06:52:13;34;32;
49644;PMS5003;36494;50.730;-1.932;2022-12-07T06:54:39;38;35;
49644;PMS5003;36494;50.730;-1.932;2022-12-07T06:57:05;29;29;
49644;PMS5003;36494;50.730;-1.932;2022-12-07T06:59:31;33;32;
49644;PMS5003;36494;50.730;-1.932;2022-12-07T07:01:56;38;35;
49644;PMS5003;36494;50.730;-1.932;2022-12-07T07:04:22;32;32;
49644;PMS5003;36494;50.730;-1.932;2022-12-07T07:06:47;34;32;
49644;PMS5003;36494;50.730;-1.932;2022-12-07T07:09:14;33;31;
49644;PMS5003;36494;50.730;-1.932;2022-12-07T07:11:39;36;34;
49644;PMS5003;36494;50.730;-1.932;2022-12-07T07:14:05;36;34;
49644;PMS5003;36494;50.730;-1.932;2022-12-07T07:16:30;35;32;
49644;PMS5003;36494;50.730;-1.932;2022-12-07T07:18:56;35;34;
49644;PMS5003;36494;50.730;-1.932;2022-12-07T07:21:22;34;33;
49644;PMS5003;36494;50.730;-1.932;2022-12-07T07:23:47;41;40;
49644;PMS5003;36494;50.730;-1.932;2022-12-07T07:26:12;38;37;
49644;PMS5003;36494;50.730;-1.932;2022-12-07T07:28:38;35;34;
49644;PMS5003;36494;50.730;-1.932;2022-12-07T07:31:03;38;35;
49644;PMS5003;36494;50.730;-1.932;2022-12-07T07:33:28;32;31;
49644;PMS5003;36494;50.730;-1.932;2022-12-07T07:35:54;36;36;
49644;PMS5003;36494;50.730;-1.932;2022-12-07T07:38:20;32;30;
49644;PMS5003;36494;50.730;-1.932;2022-12-07T07:40:45;34;32;
49644;PMS5003;36494;50.730;-1.932;2022-12-07T07:43:10;41;38;
49644;PMS5003;36494;50.730;-1.932;2022-12-07T07:45:35;36;34;
49644;PMS5003;36494;50.730;-1.932;2022-12-07T07:48:00;42;39;
49644;PMS5003;36494;50.730;-1.932;2022-12-07T07:50:25;42;40;
49644;PMS5003;36494;50.730;-1.932;2022-12-07T07:52:50;37;36;
49644;PMS5003;36494;50.730;-1.932;2022-12-07T07:55:16;32;30;
49644;PMS5003;36494;50.730;-1.932;2022-12-07T07:57:42;36;32;
49644;PMS5003;36494;50.730;-1.932;2022-12-07T08:00:08;37;35;
49644;PMS5003;36494;50.730;-1.932;2022-12-07T08:02:33;40;36;
49644;PMS5003;36494;50.730;-1.932;2022-12-07T08:04:59;30;29;
49644;PMS5003;36494;50.730;-1.932;2022-12-07T08:07:24;36;31;
49644;PMS5003;36494;50.730;-1.932;2022-12-07T08:09:50;35;34;
49644;PMS5003;36494;50.730;-1.932;2022-12-07T08:12:16;38;36;
49644;PMS5003;36494;50.730;-1.932;2022-12-07T08:14:42;39;37;
49644;PMS5003;36494;50.730;-1.932;2022-12-07T08:17:07;34;33;
49644;PMS5003;36494;50.730;-1.932;2022-12-07T08:19:32;37;35;
49644;PMS5003;36494;50.730;-1.932;2022-12-07T08:21:58;36;34;
49644;PMS5003;36494;50.730;-1.932;2022-12-07T08:24:23;36;33;
49644;PMS5003;36494;50.730;-1.932;2022-12-07T08:26:48;33;32;
49644;PMS5003;36494;50.730;-1.932;2022-12-07T08:29:14;37;36;
49644;PMS5003;36494;50.730;-1.932;2022-12-07T08:31:39;36;34;
49644;PMS5003;36494;50.730;-1.932;2022-12-07T08:34:05;40;38;
49644;PMS5003;36494;50.730;-1.932;2022-12-07T08:36:31;40;37;
49644;PMS5003;36494;50.730;-1.932;2022-12-07T08:38:56;37;36;
49644;PMS5003;36494;50.730;-1.932;2022-12-07T08:41:22;40;38;
49644;PMS5003;36494;50.730;-1.932;2022-12-07T08:43:47;38;37;
49644;PMS5003;36494;50.730;-1.932;2022-12-07T08:46:13;39;36;
49644;PMS5003;36494;50.730;-1.932;2022-12-07T08:48:39;38;36;
49644;PMS5003;36494;50.730;-1.932;2022-12-07T08:51:04;35;34;
49644;PMS5003;36494;50.730;-1.932;2022-12-07T08:53:30;37;36;
49644;PMS5003;36494;50.730;-1.932;2022-12-07T08:55:55;36;35;
49644;PMS5003;36494;50.730;-1.932;2022-12-07T08:58:20;34;34;
49644;PMS5003;36494;50.730;-1.932;2022-12-07T09:00:46;30;30;
49644;PMS5003;36494;50.730;-1.932;2022-12-07T09:03:11;36;34;
49644;PMS5003;36494;50.730;-1.932;2022-12-07T09:05:37;40;37;
49644;PMS5003;36494;50.730;-1.932;2022-12-07T09:08:02;33;31;
49644;PMS5003;36494;50.730;-1.932;2022-12-07T09:10:28;47;44;
49644;PMS5003;36494;50.730;-1.932;2022-12-07T09:12:52;39;39;
49644;PMS5003;36494;50.730;-1.932;2022-12-07T09:15:18;45;44;
49644;PMS5003;36494;50.730;-1.932;2022-12-07T09:17:43;51;47;
49644;PMS5003;36494;50.730;-1.932;2022-12-07T09:20:09;41;38;
49644;PMS5003;36494;50.730;-1.932;2022-12-07T09:22:34;40;38;
49644;PMS5003;36494;50.730;-1.932;2022-12-07T09:25:00;40;39;
49644;PMS5003;36494;50.730;-1.932;2022-12-07T09:27:26;35;32;
49644;PMS5003;36494;50.730;-1.932;2022-12-07T09:29:51;40;35;
49644;PMS5003;36494;50.730;-1.932;2022-12-07T09:32:16;45;39;
49644;PMS5003;36494;50.730;-1.932;2022-12-07T09:34:41;36;34;
49644;PMS5003;36494;50.730;-1.932;2022-12-07T09:37:07;35;33;
49644;PMS5003;36494;50.730;-1.932;2022-12-07T09:39:32;37;33;
49644;PMS5003;36494;50.730;-1.932;2022-12-07T09:41:58;36;35;
49644;PMS5003;36494;50.730;-1.932;2022-12-07T09:44:23;41;39;
49644;PMS5003;36494;50.730;-1.932;2022-12-07T09:46:48;40;38;
49644;PMS5003;36494;50.730;-1.932;2022-12-07T09:49:15;33;30;
49644;PMS5003;36494;50.730;-1.932;2022-12-07T09:51:39;41;36;
49644;PMS5003;36494;50.730;-1.932;2022-12-07T09:54:05;38;35;
49644;PMS5003;36494;50.730;-1.932;2022-12-07T09:56:31;42;40;
49644;PMS5003;36494;50.730;-1.932;2022-12-07T09:58:58;37;34;
49644;PMS5003;36494;50.730;-1.932;2022-12-07T10:01:22;36;35;
49644;PMS5003;36494;50.730;-1.932;2022-12-07T10:03:48;35;33;
49644;PMS5003;36494;50.730;-1.932;2022-12-07T10:06:13;41;38;
49644;PMS5003;36494;50.730;-1.932;2022-12-07T10:08:38;39;38;
49644;PMS5003;36494;50.730;-1.932;2022-12-07T10:11:04;37;34;
49644;PMS5003;36494;50.730;-1.932;2022-12-07T10:13:34;37;34;
49644;PMS5003;36494;50.730;-1.932;2022-12-07T10:15:55;40;36;
49644;PMS5003;36494;50.730;-1.932;2022-12-07T10:18:20;33;33;
49644;PMS5003;36494;50.730;-1.932;2022-12-07T10:20:44;33;32;
49644;PMS5003;36494;50.730;-1.932;2022-12-07T10:23:13;37;33;
49644;PMS5003;36494;50.730;-1.932;2022-12-07T10:25:36;41;39;
49644;PMS5003;36494;50.730;-1.932;2022-12-07T10:28:03;42;40;
49644;PMS5003;36494;50.730;-1.932;2022-12-07T10:30:27;39;37;
49644;PMS5003;36494;50.730;-1.932;2022-12-07T10:32:52;43;41;
49644;PMS5003;36494;50.730;-1.932;2022-12-07T10:35:20;43;40;
49644;PMS5003;36494;50.730;-1.932;2022-12-07T10:37:43;51;47;
49644;PMS5003;36494;50.730;-1.932;2022-12-07T10:40:23;68;60;
49644;PMS5003;36494;50.730;-1.932;2022-12-07T10:42:33;44;39;
49644;PMS5003;36494;50.730;-1.932;2022-12-07T10:47:27;45;44;
49644;PMS5003;36494;50.730;-1.932;2022-12-07T10:52:18;37;34;
49644;PMS5003;36494;50.730;-1.932;2022-12-07T10:54:43;34;32;
49644;PMS5003;36494;50.730;-1.932;2022-12-07T10:59:38;33;32;
49644;PMS5003;36494;50.730;-1.932;2022-12-07T11:02:00;58;55;
49644;PMS5003;36494;50.730;-1.932;2022-12-07T11:04:27;41;40;
49644;PMS5003;36494;50.730;-1.932;2022-12-07T11:06:51;47;44;
49644;PMS5003;36494;50.730;-1.932;2022-12-07T11:09:21;38;35;
49644;PMS5003;36494;50.730;-1.932;2022-12-07T11:11:42;30;28;
49644;PMS5003;36494;50.730;-1.932;2022-12-07T11:14:10;29;27;
49644;PMS5003;36494;50.730;-1.932;2022-12-07T11:16:35;36;35;
49644;PMS5003;36494;50.730;-1.932;2022-12-07T11:19:09;29;29;
49644;PMS5003;36494;50.730;-1.932;2022-12-07T11:21:23;37;35;
49644;PMS5003;36494;50.730;-1.932;2022-12-07T11:23:49;36;33;
49644;PMS5003;36494;50.730;-1.932;2022-12-07T11:26:14;43;40;
49644;PMS5003;36494;50.730;-1.932;2022-12-07T11:28:41;42;41;
49644;PMS5003;36494;50.730;-1.932;2022-12-07T11:31:06;36;34;
49644;PMS5003;36494;50.730;-1.932;2022-12-07T11:33:29;36;35;
49644;PMS5003;36494;50.730;-1.932;2022-12-07T11:35:57;30;29;
49644;PMS5003;36494;50.730;-1.932;2022-12-07T11:38:21;35;33;
49644;PMS5003;36494;50.730;-1.932;2022-12-07T11:40:46;38;35;
49644;PMS5003;36494;50.730;-1.932;2022-12-07T11:43:13;34;32;
49644;PMS5003;36494;50.730;-1.932;2022-12-07T11:45:37;35;31;
49644;PMS5003;36494;50.730;-1.932;2022-12-07T11:48:02;36;34;
49644;PMS5003;36494;50.730;-1.932;2022-12-07T11:50:31;27;27;
49644;PMS5003;36494;50.730;-1.932;2022-12-07T11:52:53;30;29;
49644;PMS5003;36494;50.730;-1.932;2022-12-07T11:55:19;31;29;
49644;PMS5003;36494;50.730;-1.932;2022-12-07T11:57:44;28;28;
49644;PMS5003;36494;50.730;-1.932;2022-12-07T12:00:12;30;30;
49644;PMS5003;36494;50.730;-1.932;2022-12-07T12:02:36;29;27;
49644;PMS5003;36494;50.730;-1.932;2022-12-07T12:05:02;30;27;
49644;PMS5003;36494;50.730;-1.932;2022-12-07T12:07:26;34;30;
49644;PMS5003;36494;50.730;-1.932;2022-12-07T12:09:52;31;30;
49644;PMS5003;36494;50.730;-1.932;2022-12-07T12:12:20;26;25;
49644;PMS5003;36494;50.730;-1.932;2022-12-07T12:14:45;26;25;
49644;PMS5003;36494;50.730;-1.932;2022-12-07T12:17:12;24;22;
49644;PMS5003;36494;50.730;-1.932;2022-12-07T12:19:33;21;20;
49644;PMS5003;36494;50.730;-1.932;2022-12-07T12:21:59;18;17;
49644;PMS5003;36494;50.730;-1.932;2022-12-07T12:24:24;16;16;
49644;PMS5003;36494;50.730;-1.932;2022-12-07T12:26:49;26;24;
49644;PMS5003;36494;50.730;-1.932;2022-12-07T12:29:19;34;31;
49644;PMS5003;36494;50.730;-1.932;2022-12-07T12:31:40;38;36;
49644;PMS5003;36494;50.730;-1.932;2022-12-07T12:39:08;23;21;
49644;PMS5003;36494;50.730;-1.932;2022-12-07T12:43:49;21;20;
49644;PMS5003;36494;50.730;-1.932;2022-12-07T12:48:39;29;26;
49644;PMS5003;36494;50.730;-1.932;2022-12-07T12:53:30;33;30;
49644;PMS5003;36494;50.730;-1.932;2022-12-07T12:58:28;22;21;
49644;PMS5003;36494;50.730;-1.932;2022-12-07T13:00:47;32;31;
49644;PMS5003;36494;50.730;-1.932;2022-12-07T13:05:37;33;30;
49644;PMS5003;36494;50.730;-1.932;2022-12-07T13:08:02;11;11;
49644;PMS5003;36494;50.730;-1.932;2022-12-07T13:10:37;23;23;
49644;PMS5003;36494;50.730;-1.932;2022-12-07T13:12:55;27;26;
49644;PMS5003;36494;50.730;-1.932;2022-12-07T13:20:09;12;12;
49644;PMS5003;36494;50.730;-1.932;2022-12-07T13:22:38;13;13;
49644;PMS5003;36494;50.730;-1.932;2022-12-07T13:25:03;13;11;
49644;PMS5003;36494;50.730;-1.932;2022-12-07T13:27:25;9;9;
49644;PMS5003;36494;50.730;-1.932;2022-12-07T13:29:51;12;12;
49644;PMS5003;36494;50.730;-1.932;2022-12-07T13:32:20;12;12;
49644;PMS5003;36494;50.730;-1.932;2022-12-07T13:34:42;12;11;
49644;PMS5003;36494;50.730;-1.932;2022-12-07T13:37:10;19;19;
49644;PMS5003;36494;50.730;-1.932;2022-12-07T13:39:33;10;10;
49644;PMS5003;36494;50.730;-1.932;2022-12-07T13:41:58;9;9;
49644;PMS5003;36494;50.730;-1.932;2022-12-07T13:44:24;9;8;
49644;PMS5003;36494;50.730;-1.932;2022-12-07T13:46:51;10;10;
49644;PMS5003;36494;50.730;-1.932;2022-12-07T13:49:16;8;6;
49644;PMS5003;36494;50.730;-1.932;2022-12-07T13:51:40;24;23;
49644;PMS5003;36494;50.730;-1.932;2022-12-07T13:54:09;25;24;
49644;PMS5003;36494;50.730;-1.932;2022-12-07T13:56:32;18;15;
49644;PMS5003;36494;50.730;-1.932;2022-12-07T13:58:56;13;13;
49644;PMS5003;36494;50.730;-1.932;2022-12-07T14:01:22;15;15;
49644;PMS5003;36494;50.730;-1.932;2022-12-07T14:03:48;10;10;
49644;PMS5003;36494;50.730;-1.932;2022-12-07T14:06:14;10;9;
49644;PMS5003;36494;50.730;-1.932;2022-12-07T14:08:38;13;13;
49644;PMS5003;36494;50.730;-1.932;2022-12-07T14:11:03;14;13;
49644;PMS5003;36494;50.730;-1.932;2022-12-07T14:13:31;12;12;
49644;PMS5003;36494;50.730;-1.932;2022-12-07T14:15:55;17;17;
49644;PMS5003;36494;50.730;-1.932;2022-12-07T14:18:25;19;19;
49644;PMS5003;36494;50.730;-1.932;2022-12-07T14:20:45;15;14;
49644;PMS5003;36494;50.730;-1.932;2022-12-07T14:28:02;17;17;
49644;PMS5003;36494;50.730;-1.932;2022-12-07T14:30:27;13;13;
49644;PMS5003;36494;50.730;-1.932;2022-12-07T14:32:53;15;15;
49644;PMS5003;36494;50.730;-1.932;2022-12-07T14:35:18;10;10;
49644;PMS5003;36494;50.730;-1.932;2022-12-07T14:37:45;8;8;
49644;PMS5003;36494;50.730;-1.932;2022-12-07T14:40:12;16;16;
49644;PMS5003;36494;50.730;-1.932;2022-12-07T14:42:34;30;28;
49644;PMS5003;36494;50.730;-1.932;2022-12-07T14:44:59;22;21;
49644;PMS5003;36494;50.730;-1.932;2022-12-07T14:47:25;40;39;
49644;PMS5003;36494;50.730;-1.932;2022-12-07T14:49:50;57;54;
49644;PMS5003;36494;50.730;-1.932;2022-12-07T14:52:16;24;23;
49644;PMS5003;36494;50.730;-1.932;2022-12-07T14:54:40;31;31;
49644;PMS5003;36494;50.730;-1.932;2022-12-07T14:57:07;18;17;
49644;PMS5003;36494;50.730;-1.932;2022-12-07T14:59:31;16;16;
49644;PMS5003;36494;50.730;-1.932;2022-12-07T15:01:57;10;10;
49644;PMS5003;36494;50.730;-1.932;2022-12-07T15:04:22;24;24;
49644;PMS5003;36494;50.730;-1.932;2022-12-07T15:09:13;13;13;
49644;PMS5003;36494;50.730;-1.932;2022-12-07T15:11:38;14;14;
49644;PMS5003;36494;50.730;-1.932;2022-12-07T15:14:04;16;15;
49644;PMS5003;36494;50.730;-1.932;2022-12-07T15:16:29;17;16;
49644;PMS5003;36494;50.730;-1.932;2022-12-07T15:18:54;15;14;
49644;PMS5003;36494;50.730;-1.932;2022-12-07T15:21:19;15;13;
49644;PMS5003;36494;50.730;-1.932;2022-12-07T15:23:46;17;17;
49644;PMS5003;36494;50.730;-1.932;2022-12-07T15:26:11;10;10;
49644;PMS5003;36494;50.730;-1.932;2022-12-07T15:28:36;11;11;
49644;PMS5003;36494;50.730;-1.932;2022-12-07T15:31:01;22;21;
49644;PMS5003;36494;50.730;-1.932;2022-12-07T15:33:26;16;15;
49644;PMS5003;36494;50.730;-1.932;2022-12-07T15:35:52;14;14;
49644;PMS5003;36494;50.730;-1.932;2022-12-07T15:38:17;17;16;
49644;PMS5003;36494;50.730;-1.932;2022-12-07T15:40:46;19;18;
49644;PMS5003;36494;50.730;-1.932;2022-12-07T15:43:08;21;20;
49644;PMS5003;36494;50.730;-1.932;2022-12-07T15:45:33;19;17;
49644;PMS5003;36494;50.730;-1.932;2022-12-07T15:47:59;18;18;
49644;PMS5003;36494;50.730;-1.932;2022-12-07T15:50:24;22;20;
49644;PMS5003;36494;50.730;-1.932;2022-12-07T15:52:50;22;19;
49644;PMS5003;36494;50.730;-1.932;2022-12-07T15:55:15;18;17;
49644;PMS5003;36494;50.730;-1.932;2022-12-07T15:57:41;20;19;
49644;PMS5003;36494;50.730;-1.932;2022-12-07T16:00:07;27;26;
49644;PMS5003;36494;50.730;-1.932;2022-12-07T16:02:32;30;29;
49644;PMS5003;36494;50.730;-1.932;2022-12-07T16:04:57;26;26;
49644;PMS5003;36494;50.730;-1.932;2022-12-07T16:07:23;29;28;
49644;PMS5003;36494;50.730;-1.932;2022-12-07T16:09:48;28;26;
49644;PMS5003;36494;50.730;-1.932;2022-12-07T16:12:14;29;27;
49644;PMS5003;36494;50.730;-1.932;2022-12-07T16:14:39;26;24;
49644;PMS5003;36494;50.730;-1.932;2022-12-07T16:17:05;25;25;
49644;PMS5003;36494;50.730;-1.932;2022-12-07T16:19:30;25;25;
49644;PMS5003;36494;50.730;-1.932;2022-12-07T16:21:55;29;24;
49644;PMS5003;36494;50.730;-1.932;2022-12-07T16:24:21;26;25;